Terminal Aerodrome Forecast
Issued by NWS

Home | Current Version | Previous Version | Text Only | Print | Product List | Glossary On
Versions: 1 2 3 4 5 6 7 8 9 10 11 12 13 14 15 16 17 18
000
FTUS45 KBOU 232105 AAA
TAFBJC
TAF AMD
KBJC 232105Z 2321/2418 18015G30KT P6SM BKN100 BKN220
     FM240000 24014KT P6SM FEW100 SCT150 BKN220
     FM240200 35018G28KT P6SM VCSH SCT030 BKN120
     FM240400 35018G28KT 4SM -SHRA SCT010 BKN040
     FM240700 35028G42KT 2SM -SHSNRA SCT008 OVC015
     FM241000 34030G45KT 1SM -SNRA BKN008 OVC015
     FM241700 24025G35KT P6SM VCSH SCT030 BKN060=

USA.gov is the U.S. government's official web portal to all federal, state and local government web resources and services.